Time,TemperatureF,DewpointF,PressureIn,WindDirection,WindDirectionDegrees,WindSpeedMPH,WindSpeedGustMPH,Humidity,HourlyPrecipIn,Conditions,Clouds,dailyrainin,SolarRadiationWatts/m^2,SoftwareType,DateUTC
2013-02-07 00:01:00,58.0,52.0,-100.00,SE,131,3.0,7.0,80,0.00,,,0.00,0.000000,,2013-02-07 10:01:00,
2013-02-07 00:11:00,58.0,52.0,-100.00,SE,131,3.0,7.0,80,0.00,,,0.00,0.000000,,2013-02-07 10:11:00,
2013-02-07 00:22:00,58.0,52.0,-100.00,SE,131,3.0,7.0,80,0.00,,,0.00,0.000000,,2013-02-07 10:22:00,
2013-02-07 00:31:00,58.0,52.0,-100.00,SE,131,3.0,7.0,80,0.00,,,0.00,0.000000,,2013-02-07 10:31:00,
2013-02-07 00:52:00,57.0,51.0,-100.00,South,171,5.0,8.0,79,0.00,,,0.00,0.000000,,2013-02-07 10:52:00,
2013-02-07 01:01:00,57.0,51.0,-100.00,South,171,5.0,8.0,79,0.00,,,0.00,0.000000,,2013-02-07 11:01:00,
2013-02-07 01:11:00,57.0,51.0,-100.00,South,171,5.0,8.0,79,0.00,,,0.00,0.000000,,2013-02-07 11:11:00,
2013-02-07 01:22:00,57.0,51.0,-100.00,South,171,5.0,8.0,79,0.00,,,0.00,0.000000,,2013-02-07 11:22:00,
2013-02-07 01:32:00,57.0,51.0,-100.00,South,171,5.0,8.0,79,0.00,,,0.00,0.000000,,2013-02-07 11:32:00,
2013-02-07 01:52:00,55.0,49.0,-100.00,SSE,164,5.0,8.0,80,0.00,,,0.00,0.000000,,2013-02-07 11:52:00,
2013-02-07 02:02:00,55.0,49.0,-100.00,SSE,164,5.0,8.0,80,0.00,,,0.00,0.000000,,2013-02-07 12:02:00,
2013-02-07 02:11:00,55.0,49.0,-100.00,SSE,164,5.0,8.0,80,0.00,,,0.00,0.000000,,2013-02-07 12:11:00,
2013-02-07 02:22:00,55.0,49.0,-100.00,SSE,164,5.0,8.0,80,0.00,,,0.00,0.000000,,2013-02-07 12:22:00,
2013-02-07 02:32:00,55.0,49.0,-100.00,SSE,164,5.0,8.0,80,0.00,,,0.00,0.000000,,2013-02-07 12:32:00,
2013-02-07 03:02:00,57.0,51.0,-100.00,South,183,5.0,8.0,80,0.00,,,0.00,0.000000,,2013-02-07 13:02:00,
2013-02-07 03:11:00,57.0,51.0,-100.00,South,183,5.0,8.0,80,0.00,,,0.00,0.000000,,2013-02-07 13:11:00,
2013-02-07 03:21:00,57.0,51.0,-100.00,South,183,5.0,8.0,80,0.00,,,0.00,0.000000,,2013-02-07 13:21:00,
2013-02-07 03:31:00,57.0,51.0,-100.00,South,183,5.0,8.0,80,0.00,,,0.00,0.000000,,2013-02-07 13:31:00,
2013-02-07 04:01:00,57.0,52.0,-100.00,SE,136,3.0,8.0,83,0.00,,,0.00,0.000000,,2013-02-07 14:01:00,
2013-02-07 04:11:00,57.0,52.0,-100.00,SE,136,3.0,8.0,83,0.00,,,0.00,0.000000,,2013-02-07 14:11:00,
2013-02-07 04:21:00,57.0,52.0,-100.00,SE,136,3.0,8.0,83,0.00,,,0.00,0.000000,,2013-02-07 14:21:00,
2013-02-07 04:31:00,57.0,52.0,-100.00,SE,136,3.0,8.0,83,0.00,,,0.00,0.000000,,2013-02-07 14:31:00,
2013-02-07 05:01:00,58.0,51.0,-100.00,SSE,155,4.0,8.0,78,0.00,,,0.00,0.000000,,2013-02-07 15:01:00,
2013-02-07 05:11:00,58.0,51.0,-100.00,SSE,155,4.0,8.0,78,0.00,,,0.00,0.000000,,2013-02-07 15:11:00,
2013-02-07 05:21:00,58.0,51.0,-100.00,SSE,155,4.0,8.0,78,0.00,,,0.00,0.000000,,2013-02-07 15:21:00,
2013-02-07 05:31:00,58.0,51.0,-100.00,SSE,155,4.0,8.0,78,0.00,,,0.00,0.000000,,2013-02-07 15:31:00,
2013-02-07 06:01:00,59.0,52.0,-100.00,South,177,5.0,9.0,79,0.00,,,0.00,0.000000,,2013-02-07 16:01:00,
2013-02-07 06:11:00,59.0,52.0,-100.00,South,177,5.0,9.0,79,0.00,,,0.00,0.000000,,2013-02-07 16:11:00,
2013-02-07 06:21:00,59.0,52.0,-100.00,South,177,5.0,9.0,79,0.00,,,0.00,0.000000,,2013-02-07 16:21:00,
2013-02-07 06:31:00,59.0,52.0,-100.00,South,177,5.0,9.0,79,0.00,,,0.00,0.000000,,2013-02-07 16:31:00,
2013-02-07 06:52:00,60.0,55.0,-100.00,SE,130,4.0,9.0,84,0.00,,,0.00,0.000000,,2013-02-07 16:52:00,
2013-02-07 07:01:00,60.0,55.0,-100.00,SE,130,4.0,9.0,84,0.00,,,0.00,0.000000,,2013-02-07 17:01:00,
2013-02-07 07:11:00,60.0,55.0,-100.00,SE,130,4.0,9.0,84,0.00,,,0.00,0.000000,,2013-02-07 17:11:00,
2013-02-07 07:21:00,60.0,55.0,-100.00,SE,130,4.0,9.0,84,0.00,,,0.00,0.000000,,2013-02-07 17:21:00,
2013-02-07 07:31:00,60.0,55.0,-100.00,SE,130,4.0,9.0,84,0.00,,,0.00,0.000000,,2013-02-07 17:31:00,
2013-02-07 07:52:00,58.0,52.0,-100.00,South,169,6.0,9.0,80,0.00,,,0.00,16.000000,,2013-02-07 17:52:00,
2013-02-07 08:01:00,58.0,52.0,-100.00,South,169,6.0,9.0,80,0.00,,,0.00,16.000000,,2013-02-07 18:01:00,
2013-02-07 08:11:00,58.0,52.0,-100.00,South,169,6.0,9.0,80,0.00,,,0.00,16.000000,,2013-02-07 18:11:00,
2013-02-07 08:22:00,58.0,52.0,-100.00,South,169,6.0,9.0,80,0.00,,,0.00,16.000000,,2013-02-07 18:22:00,
2013-02-07 08:31:00,58.0,52.0,-100.00,South,169,6.0,9.0,80,0.00,,,0.00,16.000000,,2013-02-07 18:31:00,
2013-02-07 09:01:00,72.0,58.0,-100.00,SSW,196,2.0,11.0,62,0.00,,,0.00,238.000000,,2013-02-07 19:01:00,
2013-02-07 09:11:00,72.0,58.0,-100.00,SSW,196,2.0,11.0,62,0.00,,,0.00,238.000000,,2013-02-07 19:11:00,
2013-02-07 09:22:00,72.0,58.0,-100.00,SSW,196,2.0,11.0,62,0.00,,,0.00,238.000000,,2013-02-07 19:22:00,
2013-02-07 09:31:00,72.0,58.0,-100.00,SSW,196,2.0,11.0,62,0.00,,,0.00,238.000000,,2013-02-07 19:31:00,
2013-02-07 10:01:00,72.0,56.0,-100.00,North,9,5.0,11.0,57,0.00,,,0.00,473.000000,,2013-02-07 20:01:00,
2013-02-07 10:11:00,72.0,56.0,-100.00,North,9,5.0,11.0,57,0.00,,,0.00,473.000000,,2013-02-07 20:11:00,
2013-02-07 10:21:00,72.0,56.0,-100.00,North,9,5.0,11.0,57,0.00,,,0.00,473.000000,,2013-02-07 20:21:00,
2013-02-07 10:31:00,72.0,56.0,-100.00,North,9,5.0,11.0,57,0.00,,,0.00,473.000000,,2013-02-07 20:31:00,
2013-02-07 10:52:00,74.0,59.0,-100.00,North,6,7.0,14.0,59,0.00,,,0.00,715.000000,,2013-02-07 20:52:00,
2013-02-07 11:01:00,74.0,59.0,-100.00,North,6,7.0,14.0,59,0.00,,,0.00,715.000000,,2013-02-07 21:01:00,
2013-02-07 11:11:00,74.0,59.0,-100.00,North,6,7.0,14.0,59,0.00,,,0.00,715.000000,,2013-02-07 21:11:00,
2013-02-07 11:21:00,74.0,59.0,-100.00,North,6,7.0,14.0,59,0.00,,,0.00,715.000000,,2013-02-07 21:21:00,
2013-02-07 11:31:00,74.0,59.0,-100.00,North,6,7.0,14.0,59,0.00,,,0.00,715.000000,,2013-02-07 21:31:00,
2013-02-07 11:52:00,70.0,59.0,-100.00,NNW,343,7.0,15.0,69,0.00,,,0.00,494.000000,,2013-02-07 21:52:00,
2013-02-07 12:02:00,70.0,59.0,-100.00,NNW,343,7.0,15.0,69,0.00,,,0.00,494.000000,,2013-02-07 22:02:00,
2013-02-07 12:11:00,70.0,59.0,-100.00,NNW,343,7.0,15.0,69,0.00,,,0.00,494.000000,,2013-02-07 22:11:00,
2013-02-07 12:21:00,70.0,59.0,-100.00,NNW,343,7.0,15.0,69,0.00,,,0.00,494.000000,,2013-02-07 22:21:00,
2013-02-07 12:31:00,70.0,59.0,-100.00,NNW,343,7.0,15.0,69,0.00,,,0.00,494.000000,,2013-02-07 22:31:00,
2013-02-07 13:01:00,69.0,60.0,-100.00,NNW,343,5.0,16.0,73,0.00,,,0.00,366.000000,,2013-02-07 23:01:00,
2013-02-07 13:11:00,69.0,60.0,-100.00,NNW,343,5.0,16.0,73,0.00,,,0.00,366.000000,,2013-02-07 23:11:00,
2013-02-07 13:21:00,69.0,60.0,-100.00,NNW,343,5.0,16.0,73,0.00,,,0.00,366.000000,,2013-02-07 23:21:00,
2013-02-07 13:31:00,69.0,60.0,-100.00,NNW,343,5.0,16.0,73,0.00,,,0.00,366.000000,,2013-02-07 23:31:00,
2013-02-07 14:01:00,70.0,62.0,-100.00,WNW,290,6.0,11.0,76,0.00,,,0.00,233.000000,,2013-02-08 00:01:00,
2013-02-07 14:11:00,70.0,62.0,-100.00,WNW,290,6.0,11.0,76,0.00,,,0.00,233.000000,,2013-02-08 00:11:00,
2013-02-07 14:21:00,70.0,62.0,-100.00,WNW,290,6.0,11.0,76,0.00,,,0.00,233.000000,,2013-02-08 00:21:00,
2013-02-07 14:31:00,70.0,62.0,-100.00,WNW,290,6.0,11.0,76,0.00,,,0.00,233.000000,,2013-02-08 00:31:00,
2013-02-07 15:52:00,73.0,62.0,-100.00,WNW,295,6.0,15.0,69,0.00,,,0.00,478.000000,,2013-02-08 01:52:00,
2013-02-07 16:01:00,73.0,62.0,-100.00,WNW,295,6.0,15.0,69,0.00,,,0.00,478.000000,,2013-02-08 02:01:00,
2013-02-07 16:11:00,73.0,62.0,-100.00,WNW,295,6.0,15.0,69,0.00,,,0.00,478.000000,,2013-02-08 02:11:00,
2013-02-07 16:21:00,73.0,62.0,-100.00,WNW,295,6.0,15.0,69,0.00,,,0.00,478.000000,,2013-02-08 02:21:00,
2013-02-07 16:31:00,73.0,62.0,-100.00,WNW,295,6.0,15.0,69,0.00,,,0.00,478.000000,,2013-02-08 02:31:00,
2013-02-07 16:52:00,70.0,61.0,-100.00,North,3,5.0,13.0,72,0.00,,,0.00,72.000000,,2013-02-08 02:52:00,
2013-02-07 17:01:00,70.0,61.0,-100.00,North,3,5.0,13.0,72,0.00,,,0.00,72.000000,,2013-02-08 03:01:00,
2013-02-07 17:12:00,70.0,61.0,-100.00,North,3,5.0,13.0,72,0.00,,,0.00,72.000000,,2013-02-08 03:12:00,
2013-02-07 17:22:00,70.0,61.0,-100.00,North,3,5.0,13.0,72,0.00,,,0.00,72.000000,,2013-02-08 03:22:00,
2013-02-07 17:31:00,70.0,61.0,-100.00,North,3,5.0,13.0,72,0.00,,,0.00,72.000000,,2013-02-08 03:31:00,
2013-02-07 18:01:00,68.0,59.0,-100.00,North,11,10.0,20.0,72,0.00,,,0.00,62.000000,,2013-02-08 04:01:00,
2013-02-07 18:11:00,68.0,59.0,-100.00,North,11,10.0,20.0,72,0.00,,,0.00,62.000000,,2013-02-08 04:11:00,
2013-02-07 18:21:00,68.0,59.0,-100.00,North,11,10.0,20.0,72,0.00,,,0.00,62.000000,,2013-02-08 04:21:00,
2013-02-07 18:31:00,68.0,59.0,-100.00,North,11,10.0,20.0,72,0.00,,,0.00,62.000000,,2013-02-08 04:31:00,
2013-02-07 19:01:00,66.0,58.0,-100.00,ENE,69,1.0,13.0,76,0.00,,,0.00,13.000000,,2013-02-08 05:01:00,
2013-02-07 19:11:00,66.0,58.0,-100.00,ENE,69,1.0,13.0,76,0.00,,,0.00,13.000000,,2013-02-08 05:11:00,
2013-02-07 19:22:00,66.0,58.0,-100.00,ENE,69,1.0,13.0,76,0.00,,,0.00,13.000000,,2013-02-08 05:22:00,
2013-02-07 19:31:00,66.0,58.0,-100.00,ENE,69,1.0,13.0,76,0.00,,,0.00,13.000000,,2013-02-08 05:31:00,
2013-02-07 20:01:00,62.0,57.0,-100.00,South,170,4.0,6.0,84,0.00,,,0.00,0.000000,,2013-02-08 06:01:00,
2013-02-07 20:11:00,62.0,57.0,-100.00,South,170,4.0,6.0,84,0.00,,,0.00,0.000000,,2013-02-08 06:11:00,
2013-02-07 20:21:00,62.0,57.0,-100.00,South,170,4.0,6.0,84,0.00,,,0.00,0.000000,,2013-02-08 06:21:00,
2013-02-07 20:31:00,62.0,57.0,-100.00,South,170,4.0,6.0,84,0.00,,,0.00,0.000000,,2013-02-08 06:31:00,
2013-02-07 21:01:00,61.0,56.0,-100.00,South,180,5.0,9.0,83,0.00,,,0.00,0.000000,,2013-02-08 07:01:00,
2013-02-07 21:11:00,61.0,56.0,-100.00,South,180,5.0,9.0,83,0.00,,,0.00,0.000000,,2013-02-08 07:11:00,
2013-02-07 21:21:00,61.0,56.0,-100.00,South,180,5.0,9.0,83,0.00,,,0.00,0.000000,,2013-02-08 07:21:00,
2013-02-07 21:31:00,61.0,56.0,-100.00,South,180,5.0,9.0,83,0.00,,,0.00,0.000000,,2013-02-08 07:31:00,
2013-02-07 22:01:00,62.0,57.0,-100.00,SSW,205,5.0,10.0,84,0.00,,,0.00,0.000000,,2013-02-08 08:01:00,
2013-02-07 22:11:00,62.0,57.0,-100.00,SSW,205,5.0,10.0,84,0.00,,,0.00,0.000000,,2013-02-08 08:11:00,
2013-02-07 22:21:00,62.0,57.0,-100.00,SSW,205,5.0,10.0,84,0.00,,,0.00,0.000000,,2013-02-08 08:21:00,
2013-02-07 22:32:00,62.0,57.0,-100.00,SSW,205,5.0,10.0,84,0.00,,,0.00,0.000000,,2013-02-08 08:32:00,
2013-02-07 22:52:00,62.0,56.0,-100.00,SSE,157,5.0,10.0,81,0.00,,,-99.99,0.000000,,2013-02-08 08:52:00,
2013-02-07 23:03:00,62.0,56.0,-100.00,SSE,157,5.0,10.0,81,0.00,,,-99.99,0.000000,,2013-02-08 09:03:00,
2013-02-07 23:11:00,62.0,56.0,-100.00,SSE,157,5.0,10.0,81,0.00,,,-99.99,0.000000,,2013-02-08 09:11:00,
2013-02-07 23:21:00,62.0,56.0,-100.00,SSE,157,5.0,10.0,81,0.00,,,-99.99,0.000000,,2013-02-08 09:21:00,
2013-02-07 23:31:00,62.0,56.0,-100.00,SSE,157,5.0,10.0,81,0.00,,,-99.99,0.000000,,2013-02-08 09:31:00,